Time;durP1;ratioP1;P1;durP2;ratioP2;P2;SDS_P1;SDS_P2;PMS_P1;PMS_P2;Temp;Humidity;BMP_temperature;BMP_pressure;BME280_temperature;BME280_humidity;BME280_pressure;Samples;Min_cycle;Max_cycle;Signal;HPM_P1;HPM_P2
2022/05/18 11:28:24;;;;;;;15.37;4.63;;;;;;;17.80;100.00;94911.94;6292547;22;20847;-81
2022/05/18 11:31:04;;;;;;;14.13;3.60;;;;;;;18.04;100.00;94916.50;6302082;22;20192;-86
2022/05/18 11:33:39;;;;;;;17.60;4.03;;;;;;;18.14;100.00;94913.91;6302739;22;20164;-78
2022/05/18 11:36:18;;;;;;;21.47;4.57;;;;;;;18.27;100.00;94919.75;6298900;22;20578;-79
2022/05/18 11:39:07;;;;;;;12.90;3.67;;;;;;;18.24;100.00;94921.03;6298673;22;20222;-80
2022/05/18 11:41:48;;;;;;;6.30;2.03;;;;;;;18.12;100.00;94934.41;6298897;22;20623;-79
2022/05/18 11:44:29;;;;;;;8.75;2.22;;;;;;;18.18;100.00;94943.16;6298752;22;20249;-79
2022/05/18 11:47:16;;;;;;;29.40;3.85;;;;;;;18.26;100.00;94947.91;6299567;22;20196;-79
2022/05/18 11:49:55;;;;;;;7.90;2.65;;;;;;;18.37;100.00;94939.00;6299353;22;20248;-79
2022/05/18 11:52:37;;;;;;;8.75;4.10;;;;;;;18.44;100.00;94957.94;6299275;22;20221;-78
2022/05/18 11:55:20;;;;;;;25.33;3.97;;;;;;;18.49;100.00;94957.22;6299525;22;20233;-80
2022/05/18 11:58:01;;;;;;;6.75;2.88;;;;;;;18.37;100.00;94952.16;6300252;22;20874;-81
2022/05/18 12:00:51;;;;;;;11.23;4.10;;;;;;;18.49;100.00;94951.94;6304004;22;20156;-92
2022/05/18 12:03:34;;;;;;;10.02;2.63;;;;;;;18.61;98.11;94963.03;6303817;22;20478;-76
2022/05/18 12:06:43;;;;;;;10.55;3.15;;;;;;;18.95;95.00;94968.63;6298924;22;20233;-77
2022/05/18 12:09:27;;;;;;;5.50;1.85;;;;;;;19.04;92.45;94985.50;6299461;22;20175;-77
2022/05/18 12:12:05;;;;;;;4.82;2.38;;;;;;;18.93;90.86;94982.03;6300201;22;20175;-77
2022/05/18 12:14:47;;;;;;;3.15;1.90;;;;;;;18.84;89.37;94996.00;6298579;22;20195;-77
2022/05/18 12:17:31;;;;;;;3.78;2.40;;;;;;;18.72;90.02;94971.75;6298116;22;20594;-77
2022/05/18 12:20:02;;;;;;;18.98;3.10;;;;;;;18.94;91.35;94988.13;6298157;22;20540;-76
2022/05/18 12:22:38;;;;;;;12.25;2.80;;;;;;;19.44;90.30;94992.66;6297328;22;20168;-76
2022/05/18 12:25:12;;;;;;;36.78;5.78;;;;;;;19.75;87.92;94999.50;6298184;22;20170;-76
2022/05/18 12:27:42;;;;;;;11.90;3.03;;;;;;;19.46;86.92;95001.88;6298497;22;20207;-77
2022/05/18 12:30:14;;;;;;;72.80;10.25;;;;;;;19.15;86.82;95014.25;6297763;22;20172;-76
2022/05/18 12:32:45;;;;;;;61.28;7.88;;;;;;;19.12;87.19;95016.59;6298068;22;20504;-76
2022/05/18 12:35:17;;;;;;;99.13;11.15;;;;;;;18.91;86.49;95015.78;6297995;22;20587;-76
2022/05/18 12:37:55;;;;;;;10.52;2.72;;;;;;;18.72;88.25;95005.97;6298810;22;20179;-77
2022/05/18 12:40:36;;;;;;;24.83;3.38;;;;;;;18.73;89.17;95026.00;6299118;22;20617;-76
2022/05/18 12:43:15;;;;;;;6.88;2.00;;;;;;;18.44;88.37;95021.13;6298412;22;20152;-76
2022/05/18 12:45:47;;;;;;;12.05;3.03;;;;;;;18.18;90.27;95026.53;6298439;22;20148;-77
2022/05/18 12:48:23;;;;;;;6.28;2.00;;;;;;;17.93;90.07;95030.59;6298096;22;20176;-77
2022/05/18 12:51:14;;;;;;;20.03;2.80;;;;;;;17.71;91.25;95034.41;6297412;22;20218;-77
2022/05/18 12:53:57;;;;;;;13.87;2.07;;;;;;;17.63;91.08;95040.13;6290446;22;20172;-76
2022/05/18 12:56:28;;;;;;;23.87;2.87;;;;;;;17.70;90.64;95043.34;6298534;22;20595;-78
2022/05/18 12:58:59;;;;;;;6.07;2.00;;;;;;;17.77;90.18;95054.44;6298645;22;20229;-77
2022/05/18 13:01:33;;;;;;;25.20;4.13;;;;;;;17.93;91.07;95049.03;6297907;22;20607;-77
2022/05/18 13:04:29;;;;;;;20.10;3.90;;;;;;;18.31;89.02;95055.81;6297044;22;20156;-77
2022/05/18 13:07:03;;;;;;;3.53;2.20;;;;;;;18.44;86.70;95050.06;6298864;22;20284;-77
2022/05/18 13:09:42;;;;;;;10.05;3.13;;;;;;;19.11;86.64;95057.16;6297357;22;20164;-78
2022/05/18 13:12:46;;;;;;;14.57;3.10;;;;;;;19.67;82.85;95061.50;6298720;22;20174;-76
2022/05/18 13:15:37;;;;;;;4.72;2.30;;;;;;;19.85;79.83;95067.28;6297448;22;20218;-78
2022/05/18 13:18:18;;;;;;;12.82;2.67;;;;;;;20.28;79.81;95075.44;6297444;22;20630;-81
2022/05/18 13:20:57;;;;;;;2.53;2.33;;;;;;;20.46;77.93;95063.47;6297087;22;20171;-90
2022/05/18 13:23:37;;;;;;;2.50;2.20;;;;;;;20.51;77.39;95083.81;6297940;22;20156;-76
2022/05/18 13:26:13;;;;;;;3.00;2.22;;;;;;;20.51;76.28;95078.53;6297999;22;20226;-78
2022/05/18 13:28:46;;;;;;;1.83;1.73;;;;;;;20.43;76.63;95087.81;6298527;22;20389;-77
2022/05/18 13:31:18;;;;;;;3.03;2.20;;;;;;;20.35;76.15;95089.13;6298913;22;20157;-82
2022/05/18 13:33:52;;;;;;;2.55;2.30;;;;;;;19.96;77.67;95089.97;6298620;22;20152;-76
2022/05/18 13:36:38;;;;;;;4.15;2.70;;;;;;;20.10;78.40;95089.16;6296713;22;20275;-77
2022/05/18 13:39:11;;;;;;;2.47;2.28;;;;;;;20.27;78.08;95094.97;6296769;22;20573;-77
2022/05/18 13:41:43;;;;;;;4.55;3.00;;;;;;;20.18;76.30;95107.09;6297331;22;20187;-77
2022/05/18 13:44:11;;;;;;;6.50;2.42;;;;;;;19.75;77.59;95102.38;6297365;22;20168;-76
2022/05/18 13:46:40;;;;;;;3.03;2.78;;;;;;;19.59;78.08;95108.69;6296766;22;20605;-76
2022/05/18 13:49:14;;;;;;;3.28;2.65;;;;;;;19.52;78.51;95108.16;6297076;22;20646;-77
2022/05/18 13:51:49;;;;;;;5.00;2.85;;;;;;;19.46;77.62;95104.72;6298965;22;20164;-77
2022/05/18 13:54:20;;;;;;;5.35;2.83;;;;;;;19.72;77.87;95101.06;6299893;22;20556;-77
2022/05/18 13:56:52;;;;;;;5.05;3.10;;;;;;;19.97;75.57;95099.47;6301118;22;20329;-77
2022/05/18 13:59:29;;;;;;;2.85;2.45;;;;;;;20.26;74.43;95098.66;6286779;22;20163;-77
2022/05/18 14:02:02;;;;;;;4.93;2.90;;;;;;;20.56;73.68;95102.28;6298755;22;20233;-84
2022/05/18 14:04:36;;;;;;;4.68;2.70;;;;;;;20.78;73.33;95100.88;6300492;22;20164;-82
2022/05/18 14:07:29;;;;;;;3.13;2.60;;;;;;;21.19;70.40;95103.38;6301164;22;20160;-83
2022/05/18 14:10:03;;;;;;;3.38;2.97;;;;;;;21.16;71.64;95075.63;6296871;22;20225;-82
2022/05/18 14:12:37;;;;;;;4.68;2.95;;;;;;;21.63;68.92;95108.66;6296877;22;20156;-83
2022/05/18 14:15:09;;;;;;;3.55;2.47;;;;;;;21.95;68.49;95093.09;6298895;22;20694;-82
2022/05/18 14:17:39;;;;;;;2.70;2.50;;;;;;;22.13;66.47;95105.66;6299236;22;20188;-82
2022/05/18 14:20:17;;;;;;;6.38;3.00;;;;;;;21.88;67.92;95084.69;6303632;22;20278;-93
2022/05/18 14:22:53;;;;;;;3.72;3.13;;;;;;;21.84;67.58;95086.28;6323055;22;20167;-93
2022/05/18 14:25:29;;;;;;;3.70;2.70;;;;;;;21.56;68.50;95085.16;6321677;22;20216;-91
2022/05/18 14:28:05;;;;;;;4.28;3.20;;;;;;;21.20;69.52;95086.47;6305935;22;20561;-91
2022/05/18 14:30:40;;;;;;;3.40;3.10;;;;;;;20.47;70.30;95101.25;6309716;22;20175;-92
2022/05/18 14:33:15;;;;;;;3.40;3.08;;;;;;;20.32;71.84;95094.94;6307979;22;20167;-86
2022/05/18 14:35:51;;;;;;;7.78;3.15;;;;;;;19.87;72.35;95092.34;6303986;22;20172;-85
2022/05/18 14:38:29;;;;;;;5.03;3.15;;;;;;;19.52;73.95;95101.03;6306907;22;20620;-89
2022/05/18 14:41:07;;;;;;;6.55;3.10;;;;;;;19.35;75.18;95089.91;6311576;22;20221;-88
2022/05/18 14:43:40;;;;;;;3.83;3.20;;;;;;;19.21;77.38;95084.34;6307043;22;20696;-90
2022/05/18 14:46:23;;;;;;;7.47;3.22;;;;;;;19.18;76.30;95105.97;6309860;22;20684;-84
2022/05/18 14:49:08;;;;;;;5.90;3.15;;;;;;;18.96;76.85;95115.13;6307323;22;20229;-91
2022/05/18 14:51:51;;;;;;;3.75;3.40;;;;;;;18.60;78.02;95120.22;6307811;22;20547;-91
2022/05/18 14:54:35;;;;;;;5.63;3.08;;;;;;;18.66;79.67;95116.56;6306600;22;20160;-92
2022/05/18 14:57:11;;;;;;;5.00;3.63;;;;;;;18.49;82.67;95065.16;6306207;22;20168;-93
2022/05/18 14:59:48;;;;;;;5.07;3.63;;;;;;;18.88;85.10;95108.50;6302731;22;20179;-87
2022/05/18 15:02:22;;;;;;;5.55;3.63;;;;;;;18.68;86.08;95101.31;6304143;22;20145;-94
2022/05/18 15:05:03;;;;;;;4.68;3.20;;;;;;;18.61;83.27;95086.81;6310938;22;20199;-93
2022/05/18 15:07:36;;;;;;;3.88;3.40;;;;;;;18.63;83.13;95092.59;6313246;22;20180;-91
2022/05/18 15:10:23;;;;;;;6.00;3.50;;;;;;;18.69;83.88;95110.00;6315585;22;20153;-85
2022/05/18 15:13:04;;;;;;;4.00;3.28;;;;;;;18.68;84.43;95111.03;6317475;22;20171;-91
2022/05/18 15:15:44;;;;;;;3.97;3.58;;;;;;;18.69;84.10;95099.47;6308827;22;20180;-88
2022/05/18 15:18:29;;;;;;;5.43;3.30;;;;;;;18.86;81.82;95122.97;6306850;22;20160;-78
2022/05/18 15:21:06;;;;;;;5.97;3.88;;;;;;;18.91;81.13;95125.63;6303909;22;20194;-84
2022/05/18 15:23:45;;;;;;;6.25;3.75;;;;;;;18.77;81.24;95120.03;6300233;22;20210;-88
2022/05/18 15:26:25;;;;;;;7.85;3.72;;;;;;;18.65;82.30;95127.34;6300575;22;20183;-83
2022/05/18 15:29:00;;;;;;;4.28;3.03;;;;;;;18.29;80.99;95143.97;6301497;22;20171;-83
2022/05/18 15:31:38;;;;;;;3.30;2.90;;;;;;;18.13;81.37;95143.84;6300880;22;20160;-83
2022/05/18 15:34:17;;;;;;;3.03;2.73;;;;;;;18.20;81.39;95151.53;6300433;22;20167;-82
2022/05/18 15:36:52;;;;;;;4.30;2.50;;;;;;;18.42;80.39;95162.75;6300525;22;20186;-82
2022/05/18 15:39:23;;;;;;;5.93;2.83;;;;;;;18.68;80.59;95147.91;6301749;22;20167;-82
2022/05/18 15:42:01;;;;;;;5.30;2.30;;;;;;;19.02;78.90;95164.91;6302375;22;20630;-83
2022/05/18 15:44:34;;;;;;;4.68;2.30;;;;;;;19.22;77.48;95156.28;6304700;22;20239;-86
2022/05/18 15:47:11;;;;;;;2.83;2.40;;;;;;;19.41;76.90;95164.56;6301363;22;20156;-86
2022/05/18 15:49:49;;;;;;;3.83;2.20;;;;;;;19.59;75.98;95164.88;6300950;22;20151;-86
2022/05/18 15:52:23;;;;;;;3.90;2.00;;;;;;;19.83;74.96;95165.94;6301075;22;20164;-86
2022/05/18 15:55:00;;;;;;;4.32;2.55;;;;;;;19.75;75.25;95169.13;6300824;22;20200;-83
2022/05/18 15:57:45;;;;;;;4.32;2.60;;;;;;;19.56;76.58;95168.03;6301296;22;20501;-83
2022/05/18 16:00:22;;;;;;;2.78;2.13;;;;;;;19.34;77.54;95162.13;6300187;22;20205;-81
2022/05/18 16:02:54;;;;;;;5.45;1.83;;;;;;;19.11;79.07;95195.00;6302368;22;20167;-81
2022/05/18 16:05:27;;;;;;;3.78;2.00;;;;;;;18.81;80.48;95205.41;6304522;22;20168;-82
2022/05/18 16:07:59;;;;;;;4.60;1.92;;;;;;;18.51;81.41;95229.69;6302416;22;20611;-82
2022/05/18 16:10:31;;;;;;;10.02;2.33;;;;;;;18.09;85.62;95270.91;6304757;22;20191;-83
2022/05/18 16:13:06;;;;;;;13.50;2.60;;;;;;;17.40;88.06;95280.38;6302327;22;20191;-82
2022/05/18 16:15:38;;;;;;;14.53;1.97;;;;;;;16.60;94.72;95285.28;6300783;22;20179;-82
2022/05/18 16:18:11;;;;;;;5.33;1.73;;;;;;;16.24;99.60;95287.34;6300553;22;20634;-83
2022/05/18 16:20:43;;;;;;;4.50;1.50;;;;;;;15.54;100.00;95305.19;6299938;22;20217;-82
2022/05/18 16:23:21;;;;;;;2.10;1.40;;;;;;;15.04;100.00;95312.75;6299969;22;20152;-83
2022/05/18 16:25:58;;;;;;;3.57;1.40;;;;;;;14.87;100.00;95334.59;6299501;22;20519;-83
2022/05/18 16:28:44;;;;;;;1.93;1.37;;;;;;;14.60;100.00;95321.97;6300666;22;20191;-83
2022/05/18 16:31:18;;;;;;;3.23;1.43;;;;;;;14.59;100.00;95323.00;6300296;22;20153;-83
2022/05/18 16:33:52;;;;;;;1.90;1.40;;;;;;;14.61;100.00;95354.16;6299509;22;20661;-83
2022/05/18 16:36:24;;;;;;;3.60;1.87;;;;;;;14.42;100.00;95371.75;6299428;22;20177;-83
2022/05/18 16:39:00;;;;;;;1.90;1.60;;;;;;;14.46;100.00;95378.13;6300125;22;20168;-82
2022/05/18 16:41:36;;;;;;;1.70;1.57;;;;;;;14.27;100.00;95370.53;6302219;22;20277;-82
2022/05/18 16:44:14;;;;;;;1.97;1.50;;;;;;;14.32;100.00;95395.03;6301787;22;20152;-83
2022/05/18 16:46:53;;;;;;;3.43;1.77;;;;;;;14.32;100.00;95404.66;6301355;22;20160;-83
2022/05/18 16:49:29;;;;;;;2.00;1.73;;;;;;;14.23;100.00;95412.81;6300277;22;20199;-83
2022/05/18 16:52:07;;;;;;;1.93;1.40;;;;;;;14.21;100.00;95430.53;6301031;22;20186;-82
2022/05/18 16:54:46;;;;;;;2.50;1.57;;;;;;;14.34;100.00;95413.94;6298780;22;20520;-83
2022/05/18 16:57:25;;;;;;;1.90;1.70;;;;;;;14.38;100.00;95425.53;6299313;22;20191;-83
2022/05/18 16:59:59;;;;;;;3.30;1.70;;;;;;;14.23;100.00;95416.47;6302152;22;20168;-83
2022/05/18 17:02:31;;;;;;;3.50;1.70;;;;;;;14.28;100.00;95427.06;6301745;22;20159;-84
2022/05/18 17:07:44;;;;;;;2.00;1.80;;;;;;;14.32;100.00;95418.56;6300047;22;20228;-85
2022/05/18 17:10:15;;;;;;;5.10;1.97;;;;;;;14.33;100.00;95416.75;6300004;22;20229;-85
2022/05/18 17:12:47;;;;;;;2.97;2.03;;;;;;;14.42;100.00;95421.44;6300901;22;20160;-84
2022/05/18 17:15:23;;;;;;;2.47;1.90;;;;;;;14.37;100.00;95423.13;6301737;22;20613;-85
2022/05/18 17:17:51;;;;;;;3.40;1.80;;;;;;;14.37;100.00;95423.91;6300866;22;20160;-83
2022/05/18 17:20:21;;;;;;;1.63;1.50;;;;;;;14.26;100.00;95414.19;6299628;22;20226;-85
2022/05/18 17:22:50;;;;;;;1.70;1.60;;;;;;;14.01;100.00;95422.16;6298147;22;20156;-84
2022/05/18 17:25:25;;;;;;;3.30;1.60;;;;;;;13.97;100.00;95425.41;6298546;22;20174;-85
2022/05/18 17:27:58;;;;;;;1.97;1.77;;;;;;;13.90;100.00;95419.47;6298534;22;20202;-86
2022/05/18 17:30:33;;;;;;;2.20;1.97;;;;;;;13.84;100.00;95425.56;6300136;22;20229;-85
2022/05/18 17:33:04;;;;;;;4.77;2.10;;;;;;;13.64;100.00;95390.03;6307670;22;20238;-85
2022/05/18 17:35:36;;;;;;;3.40;1.93;;;;;;;13.84;100.00;95425.56;6276498;22;20451;-86
2022/05/18 17:38:07;;;;;;;10.23;2.90;;;;;;;13.72;100.00;95422.09;6291682;22;20160;-90
2022/05/18 17:40:36;;;;;;;3.67;2.20;;;;;;;13.67;100.00;95435.00;6303490;22;20166;-91
2022/05/18 17:43:09;;;;;;;5.33;2.43;;;;;;;13.73;100.00;95441.97;6302378;22;20168;-90
2022/05/18 17:45:44;;;;;;;3.00;2.20;;;;;;;13.75;100.00;95448.59;6303462;22;20571;-90
2022/05/18 17:48:22;;;;;;;2.63;2.30;;;;;;;13.80;100.00;95447.91;6302201;22;20156;-90
2022/05/18 17:50:55;;;;;;;2.80;2.50;;;;;;;13.78;100.00;95452.56;6304178;22;20160;-91
2022/05/18 17:53:26;;;;;;;2.67;2.43;;;;;;;13.80;100.00;95453.16;6303496;22;20160;-92
2022/05/18 17:56:01;;;;;;;3.67;2.60;;;;;;;13.78;100.00;95456.00;6309743;22;20623;-92
2022/05/18 17:58:33;;;;;;;3.00;2.70;;;;;;;13.77;100.00;95451.78;6304240;22;20185;-91
2022/05/18 18:01:10;;;;;;;4.67;3.00;;;;;;;13.74;100.00;95449.59;6302775;22;20160;-92
2022/05/18 18:03:44;;;;;;;3.30;2.60;;;;;;;13.85;100.00;95454.09;6302964;22;20176;-90
2022/05/18 18:06:16;;;;;;;2.83;2.50;;;;;;;13.92;100.00;95467.09;6302376;22;20160;-91
2022/05/18 18:08:48;;;;;;;4.47;2.70;;;;;;;13.93;100.00;95471.31;6301074;22;20168;-91
2022/05/18 18:11:17;;;;;;;2.93;2.50;;;;;;;13.90;100.00;95476.97;6301708;22;20164;-91
2022/05/18 18:13:46;;;;;;;5.03;2.70;;;;;;;13.87;100.00;95483.44;6305470;22;20171;-90
2022/05/18 18:16:20;;;;;;;3.87;2.80;;;;;;;13.87;100.00;95482.63;6301100;22;20168;-85
2022/05/18 18:18:48;;;;;;;6.30;2.50;;;;;;;13.81;100.00;95486.91;6300562;22;20967;-86
2022/05/18 18:21:20;;;;;;;3.00;2.40;;;;;;;13.76;100.00;95497.22;6298174;22;20164;-87
2022/05/18 18:23:48;;;;;;;4.83;3.50;;;;;;;13.70;100.00;95502.50;6297738;22;20161;-89
2022/05/18 18:26:26;;;;;;;3.60;3.13;;;;;;;13.51;100.00;95510.31;6298833;22;20249;-85
2022/05/18 18:28:56;;;;;;;5.13;3.67;;;;;;;13.45;100.00;95520.78;6300035;22;20662;-88
2022/05/18 18:31:27;;;;;;;5.97;3.80;;;;;;;13.09;100.00;95500.63;6299448;22;20187;-85
2022/05/18 18:33:58;;;;;;;4.93;3.70;;;;;;;13.01;100.00;95513.91;6299889;22;20188;-85
2022/05/18 18:36:29;;;;;;;4.83;3.73;;;;;;;12.89;100.00;95492.91;6301760;22;20188;-88
2022/05/18 18:39:00;;;;;;;6.63;3.93;;;;;;;13.10;100.00;95536.16;6300793;22;20607;-87
2022/05/18 18:41:33;;;;;;;6.87;4.20;;;;;;;13.14;100.00;95532.09;6299871;22;20171;-87
2022/05/18 18:44:02;;;;;;;5.00;3.43;;;;;;;13.16;100.00;95543.13;6300772;22;20219;-88
2022/05/18 18:46:36;;;;;;;5.27;3.70;;;;;;;13.19;100.00;95549.75;6302982;22;20224;-85
2022/05/18 18:49:09;;;;;;;5.30;3.20;;;;;;;13.20;100.00;95567.78;6302874;22;20160;-86
2022/05/18 18:54:45;;;;;;;4.47;3.80;;;;;;;13.15;100.00;95575.47;6303026;22;20159;-85
2022/05/18 18:57:19;;;;;;;6.03;3.63;;;;;;;13.11;100.00;95578.69;6302124;22;20231;-86
2022/05/18 18:59:48;;;;;;;6.57;3.93;;;;;;;13.07;100.00;95584.31;6300844;22;20461;-87
2022/05/18 19:02:20;;;;;;;7.07;4.03;;;;;;;13.06;100.00;95593.16;6300990;22;20167;-86
2022/05/18 19:04:53;;;;;;;6.77;4.57;;;;;;;13.12;100.00;95606.41;6300805;22;20235;-86
2022/05/18 19:07:27;;;;;;;5.63;4.00;;;;;;;13.05;100.00;95609.00;6300341;22;20896;-85
2022/05/18 19:09:59;;;;;;;6.83;3.87;;;;;;;12.81;100.00;95594.88;6301650;22;20175;-86
2022/05/18 19:12:37;;;;;;;4.97;3.77;;;;;;;12.90;100.00;95616.34;6303545;22;20160;-89
2022/05/18 19:15:10;;;;;;;7.27;4.77;;;;;;;12.93;100.00;95616.69;6302103;22;20188;-87
2022/05/18 19:17:39;;;;;;;7.57;4.70;;;;;;;12.90;100.00;95613.72;6301692;22;20167;-85
2022/05/18 19:20:15;;;;;;;9.33;4.47;;;;;;;12.72;100.00;95608.38;6303872;22;20156;-87
2022/05/18 19:22:48;;;;;;;5.73;4.30;;;;;;;12.44;100.00;95609.47;6303175;22;20190;-84
2022/05/18 19:25:23;;;;;;;7.20;4.70;;;;;;;12.35;100.00;95623.72;6301450;22;20160;-85
2022/05/18 19:27:53;;;;;;;6.57;4.30;;;;;;;12.36;100.00;95633.16;6302120;22;20260;-86
2022/05/18 19:30:27;;;;;;;4.90;3.90;;;;;;;12.38;100.00;95617.34;6301744;22;20160;-84
2022/05/18 19:32:59;;;;;;;7.17;4.13;;;;;;;12.47;100.00;95635.13;6299068;22;20165;-85
2022/05/18 19:35:28;;;;;;;4.50;3.93;;;;;;;12.35;100.00;95634.16;6302352;22;20199;-85
2022/05/18 19:37:57;;;;;;;5.30;3.77;;;;;;;12.17;100.00;95636.63;6300632;22;20253;-86
2022/05/18 19:40:32;;;;;;;5.67;4.00;;;;;;;12.22;100.00;95644.63;6300371;22;20578;-83
2022/05/18 19:43:03;;;;;;;5.07;3.60;;;;;;;12.19;100.00;95633.81;6300908;22;20643;-86
2022/05/18 19:45:34;;;;;;;9.63;3.50;;;;;;;12.11;100.00;95644.44;6302220;22;20265;-86
2022/05/18 19:48:08;;;;;;;3.73;3.23;;;;;;;11.94;100.00;95654.47;6303021;22;20192;-86
2022/05/18 19:50:37;;;;;;;4.97;3.20;;;;;;;11.86;100.00;95654.69;6300309;22;20634;-87
2022/05/18 19:53:05;;;;;;;4.20;3.10;;;;;;;11.91;100.00;95644.47;6299373;22;20160;-89
2022/05/18 19:55:37;;;;;;;5.53;3.50;;;;;;;11.91;100.00;95639.25;6300756;22;20516;-84
2022/05/18 19:58:08;;;;;;;5.00;3.20;;;;;;;11.90;100.00;95659.28;6301944;22;20168;-83
2022/05/18 20:00:43;;;;;;;5.20;2.97;;;;;;;11.86;100.00;95659.91;6299717;22;20251;-83
2022/05/18 20:03:17;;;;;;;5.23;3.63;;;;;;;11.88;100.00;95663.91;6301769;22;20201;-83
2022/05/18 20:05:49;;;;;;;8.10;3.47;;;;;;;11.95;100.00;95667.28;6299600;22;20202;-84
2022/05/18 20:08:17;;;;;;;5.33;3.57;;;;;;;12.00;100.00;95671.91;6299576;22;20253;-84
2022/05/18 20:10:47;;;;;;;6.03;3.40;;;;;;;12.00;100.00;95671.13;6300476;22;20180;-84
2022/05/18 20:13:18;;;;;;;6.70;3.30;;;;;;;11.88;100.00;95669.13;6299609;22;20385;-84
2022/05/18 20:15:51;;;;;;;7.47;3.33;;;;;;;11.91;100.00;95678.34;6298913;22;20235;-84
2022/05/18 20:18:25;;;;;;;8.50;3.40;;;;;;;11.84;100.00;95660.09;6298833;22;20276;-83
2022/05/18 20:20:54;;;;;;;7.53;3.20;;;;;;;11.93;100.00;95668.50;6298248;22;20171;-82
2022/05/18 20:23:23;;;;;;;6.57;3.13;;;;;;;12.04;100.00;95674.91;6298642;22;20236;-85
2022/05/18 20:25:54;;;;;;;9.43;3.30;;;;;;;11.91;100.00;95665.31;6306669;22;20175;-82
2022/05/18 20:28:27;;;;;;;10.00;3.10;;;;;;;11.92;100.00;95680.72;6309011;22;20615;-83
2022/05/18 20:30:59;;;;;;;4.70;3.10;;;;;;;11.87;100.00;95680.53;6301320;22;20180;-84
2022/05/18 20:33:31;;;;;;;5.33;3.10;;;;;;;11.81;100.00;95670.09;6299632;22;20191;-84
2022/05/18 20:36:03;;;;;;;7.57;2.90;;;;;;;11.93;100.00;95689.34;6298874;22;20156;-87
2022/05/18 20:38:37;;;;;;;10.17;3.00;;;;;;;11.78;100.00;95673.09;6300443;22;20149;-80
2022/05/18 20:41:08;;;;;;;6.57;2.77;;;;;;;11.92;100.00;95687.72;6308816;22;20149;-88
2022/05/18 20:43:40;;;;;;;8.00;2.90;;;;;;;11.91;100.00;95689.56;6304629;22;20558;-80
2022/05/18 20:46:24;;;;;;;4.47;2.47;;;;;;;11.80;100.00;95692.72;6303767;22;20157;-83
2022/05/18 20:49:01;;;;;;;6.13;2.60;;;;;;;11.75;100.00;95689.13;6300280;22;20164;-83
2022/05/18 20:51:37;;;;;;;5.37;2.63;;;;;;;11.75;100.00;95684.72;6300233;22;20183;-82
2022/05/18 20:54:13;;;;;;;7.67;3.10;;;;;;;11.71;100.00;95688.75;6301646;22;20166;-83
2022/05/18 20:56:51;;;;;;;5.37;2.83;;;;;;;11.67;100.00;95684.09;6304629;22;20167;-84
2022/05/18 20:59:26;;;;;;;5.20;3.17;;;;;;;11.59;100.00;95694.69;6303590;22;20577;-85
2022/05/18 21:02:01;;;;;;;5.40;2.97;;;;;;;11.65;100.00;95699.91;6301181;22;20186;-85
2022/05/18 21:04:37;;;;;;;5.10;2.83;;;;;;;11.58;100.00;95686.09;6303236;22;20152;-83
2022/05/18 21:07:09;;;;;;;8.03;3.20;;;;;;;11.56;100.00;95687.28;6300133;22;20183;-84
2022/05/18 21:09:41;;;;;;;6.70;3.00;;;;;;;11.53;100.00;95692.88;6299148;22;20235;-85
2022/05/18 21:12:16;;;;;;;6.43;2.90;;;;;;;11.39;100.00;95695.47;6299014;22;20153;-85
2022/05/18 21:14:47;;;;;;;5.83;3.27;;;;;;;11.47;100.00;95704.09;6298930;22;20160;-84
2022/05/18 21:17:23;;;;;;;6.37;3.23;;;;;;;11.47;100.00;95701.47;6298371;22;20623;-85
2022/05/18 21:19:56;;;;;;;4.43;3.27;;;;;;;11.42;100.00;95696.06;6298442;22;20166;-84
2022/05/18 21:22:27;;;;;;;7.47;3.70;;;;;;;11.40;100.00;95694.44;6298454;22;20175;-83
2022/05/18 21:24:58;;;;;;;5.23;3.70;;;;;;;11.26;100.00;95666.78;6298492;22;20504;-83
2022/05/18 21:27:29;;;;;;;6.80;3.73;;;;;;;11.52;100.00;95701.69;6288150;22;20203;-84
2022/05/18 21:29:59;;;;;;;7.73;3.57;;;;;;;11.53;100.00;95705.91;6287884;22;20619;-85
2022/05/18 21:32:27;;;;;;;7.20;4.27;;;;;;;11.53;100.00;95700.69;6297147;22;20627;-85
2022/05/18 21:35:00;;;;;;;7.17;4.10;;;;;;;11.45;100.00;95693.88;6298740;22;20202;-84
2022/05/18 21:37:29;;;;;;;8.63;3.67;;;;;;;11.49;100.00;95702.88;6298706;22;20148;-84
2022/05/18 21:40:00;;;;;;;10.63;3.73;;;;;;;11.43;100.00;95706.25;6299541;22;20168;-83
2022/05/18 21:42:30;;;;;;;11.07;3.60;;;;;;;11.38;100.00;95714.69;6298599;22;20202;-84
2022/05/18 21:45:04;;;;;;;7.00;3.80;;;;;;;11.37;100.00;95715.66;6298662;22;20233;-84
2022/05/18 21:47:35;;;;;;;6.60;3.80;;;;;;;11.34;100.00;95697.84;6298497;22;20226;-84
2022/05/18 21:50:07;;;;;;;4.83;3.40;;;;;;;11.41;100.00;95710.88;6301177;22;20156;-84
2022/05/18 21:52:36;;;;;;;6.00;3.50;;;;;;;11.42;100.00;95711.69;6298070;22;20160;-84
2022/05/18 21:55:35;;;;;;;6.27;3.43;;;;;;;10.93;100.00;95642.50;6298796;22;20570;-85
2022/05/18 21:58:05;;;;;;;10.80;3.50;;;;;;;11.27;100.00;95704.84;6291952;22;20164;-84
2022/05/18 22:00:48;;;;;;;6.43;3.50;;;;;;;11.28;100.00;95709.03;6299401;22;20552;-85
2022/05/18 22:03:24;;;;;;;4.43;3.43;;;;;;;11.27;100.00;95715.25;6298293;22;20168;-85
2022/05/18 22:05:56;;;;;;;4.93;3.73;;;;;;;11.15;100.00;95709.00;6290206;22;20630;-85
2022/05/18 22:08:26;;;;;;;6.10;3.90;;;;;;;11.20;100.00;95714.41;6297001;22;20559;-79
2022/05/18 22:11:00;;;;;;;5.40;3.90;;;;;;;11.19;100.00;95720.63;6298544;22;20602;-78
2022/05/18 22:13:31;;;;;;;9.47;3.83;;;;;;;11.08;100.00;95726.38;6300526;22;20219;-82
2022/05/18 22:16:05;;;;;;;9.27;3.73;;;;;;;11.02;100.00;95721.16;6306860;22;20153;-82
2022/05/18 22:18:39;;;;;;;7.37;3.87;;;;;;;11.02;100.00;95721.97;6302419;22;20164;-84
2022/05/18 22:21:20;;;;;;;4.47;3.80;;;;;;;11.05;100.00;95732.00;6303270;22;20225;-85
2022/05/18 22:23:54;;;;;;;5.80;3.90;;;;;;;10.88;100.00;95722.09;6303456;22;20163;-85
2022/05/18 22:26:26;;;;;;;7.70;3.70;;;;;;;10.96;100.00;95745.34;6302569;22;20627;-85
2022/05/18 22:29:01;;;;;;;7.53;3.40;;;;;;;10.88;100.00;95738.50;6301940;22;20187;-84
2022/05/18 22:31:31;;;;;;;7.17;3.70;;;;;;;10.73;100.00;95738.63;6299089;22;20239;-83
2022/05/18 22:34:02;;;;;;;9.33;3.60;;;;;;;10.64;100.00;95744.19;6301387;22;20218;-87
2022/05/18 22:36:38;;;;;;;5.07;3.20;;;;;;;10.64;100.00;95744.97;6302014;22;20184;-85
2022/05/18 22:39:13;;;;;;;5.10;3.53;;;;;;;10.63;100.00;95737.34;6302055;22;20163;-85
2022/05/18 22:41:45;;;;;;;3.90;3.10;;;;;;;10.51;100.00;95751.88;6302754;22;20797;-85
2022/05/18 22:44:23;;;;;;;5.97;3.10;;;;;;;10.46;100.00;95746.44;6302353;22;20687;-85
2022/05/18 22:46:54;;;;;;;3.20;2.90;;;;;;;10.24;100.00;95746.47;6303410;22;20164;-86
2022/05/18 22:49:25;;;;;;;5.90;3.13;;;;;;;10.23;100.00;95746.69;6303333;22;20595;-86
2022/05/18 22:52:00;;;;;;;5.90;3.10;;;;;;;10.01;100.00;95721.72;6302701;22;20156;-87
2022/05/18 22:54:41;;;;;;;3.90;2.97;;;;;;;10.25;100.00;95761.09;6302332;22;20179;-86
2022/05/18 22:57:15;;;;;;;5.00;3.10;;;;;;;10.19;100.00;95754.06;6302419;22;20615;-85
2022/05/18 22:59:50;;;;;;;8.00;3.30;;;;;;;10.18;100.00;95770.66;6302032;22;20161;-82
2022/05/18 23:02:24;;;;;;;4.37;3.30;;;;;;;10.06;100.00;95774.69;6301897;22;20166;-82
2022/05/18 23:05:02;;;;;;;7.57;3.47;;;;;;;10.06;100.00;95772.09;6303459;22;20167;-82
2022/05/18 23:07:36;;;;;;;7.77;3.00;;;;;;;9.95;100.00;95772.59;6302220;22;20183;-82
2022/05/18 23:10:11;;;;;;;7.00;3.47;;;;;;;9.93;100.00;95768.56;6301986;22;20174;-82
2022/05/18 23:12:44;;;;;;;8.47;3.10;;;;;;;9.88;100.00;95771.72;6302001;22;20634;-82
2022/05/18 23:15:22;;;;;;;12.23;4.10;;;;;;;9.83;100.00;95781.88;6304385;22;20153;-83
2022/05/18 23:18:00;;;;;;;7.20;4.40;;;;;;;9.79;100.00;95775.44;6304966;22;20156;-91
2022/05/18 23:20:33;;;;;;;6.83;4.37;;;;;;;9.76;100.00;95781.00;6305858;22;20164;-90
2022/05/18 23:25:59;;;;;;;4.80;3.77;;;;;;;9.63;100.00;95766.13;6305385;22;20152;-91
2022/05/18 23:28:32;;;;;;;4.60;3.43;;;;;;;9.63;100.00;95776.50;6304229;22;20192;-91
2022/05/18 23:31:06;;;;;;;4.17;3.27;;;;;;;9.61;100.00;95782.84;6304684;22;20152;-89
2022/05/18 23:33:38;;;;;;;5.93;4.17;;;;;;;9.57;100.00;95777.22;6304678;22;20624;-90
2022/05/18 23:36:15;;;;;;;8.33;4.20;;;;;;;9.55;100.00;95773.22;6303959;22;20493;-91
2022/05/18 23:38:47;;;;;;;6.17;4.57;;;;;;;9.47;100.00;95775.91;6303932;22;20240;-90